createdAt,value
2023-01-17T00:02:24.270Z,97612.51
2023-01-17T00:05:10.386Z,97612.97
2023-01-17T00:07:56.509Z,97609.63
2023-01-17T00:10:27.415Z,97608.27
2023-01-17T00:13:00.164Z,97608.38
2023-01-17T00:15:30.660Z,97611.09
2023-01-17T00:17:59.209Z,97606.67
2023-01-17T00:20:49.450Z,97604.84
2023-01-17T00:23:40.913Z,97601.73
2023-01-17T00:26:18.750Z,97598.92
2023-01-17T00:28:48.213Z,97598.70
2023-01-17T00:31:17.113Z,97597.71
2023-01-17T00:33:45.066Z,97593.84
2023-01-17T00:36:15.676Z,97593.77
2023-01-17T00:38:43.549Z,97593.71
2023-01-17T00:41:14.425Z,97590.34
2023-01-17T00:44:00.493Z,97580.98
2023-01-17T00:46:46.712Z,97572.98
2023-01-17T00:49:32.780Z,97567.45
2023-01-17T00:52:19.267Z,97562.30
2023-01-17T00:55:05.346Z,97556.15
2023-01-17T00:57:51.490Z,97553.09
2023-01-17T01:00:38.174Z,97549.91
2023-01-17T01:03:29.355Z,97550.66
2023-01-17T01:06:16.079Z,97547.15
2023-01-17T01:09:02.798Z,97537.64
2023-01-17T01:11:48.837Z,97541.47
2023-01-17T01:14:35.438Z,97546.44
2023-01-17T01:17:22.671Z,97544.27
2023-01-17T01:20:08.804Z,97546.34
2023-01-17T01:22:55.060Z,97545.52
2023-01-17T01:25:41.067Z,97538.82
2023-01-17T01:28:30.627Z,97537.45
2023-01-17T01:31:23.763Z,97538.46
2023-01-17T01:33:52.616Z,97532.23
2023-01-17T01:36:20.825Z,97530.31
2023-01-17T01:38:49.586Z,97523.48
2023-01-17T01:41:17.450Z,97518.86
2023-01-17T01:43:54.307Z,97515.86
2023-01-17T01:46:40.913Z,97516.87
2023-01-17T01:49:20.706Z,97511.52
2023-01-17T01:51:55.549Z,97509.02
2023-01-17T01:54:33.220Z,97510.64
2023-01-17T01:57:04.169Z,97510.33
2023-01-17T01:59:33.510Z,97506.39
2023-01-17T02:02:01.567Z,97509.36
2023-01-17T02:04:29.306Z,97513.61
2023-01-17T02:07:14.699Z,97515.61
2023-01-17T02:09:42.573Z,97514.80
2023-01-17T02:12:11.750Z,97514.90
2023-01-17T02:14:39.734Z,97516.17
2023-01-17T02:17:39.549Z,97516.51
2023-01-17T02:20:44.869Z,97515.33
2023-01-17T02:24:00.728Z,97512.77
2023-01-17T02:26:59.713Z,97511.21
2023-01-17T02:30:25.743Z,97509.07
2023-01-17T02:33:03.357Z,97506.54
2023-01-17T02:36:03.989Z,97505.97
2023-01-17T02:39:09.989Z,97511.52
2023-01-17T02:41:42.913Z,97512.57
2023-01-17T02:44:16.345Z,97513.65
2023-01-17T02:46:56.179Z,97513.79
2023-01-17T02:49:29.514Z,97512.33
2023-01-17T02:52:46.382Z,97513.27
2023-01-17T02:55:35.222Z,97506.64
2023-01-17T02:58:41.521Z,97503.98
2023-01-17T03:01:18.068Z,97502.17
2023-01-17T03:04:10.969Z,97498.47
2023-01-17T03:06:47.496Z,97492.95
2023-01-17T03:09:16.739Z,97490.69
2023-01-17T03:11:44.973Z,97487.58
2023-01-17T03:14:12.709Z,97481.59
2023-01-17T03:16:41.051Z,97478.17
2023-01-17T03:19:09.295Z,97479.21
2023-01-17T03:21:37.009Z,97485.02
2023-01-17T03:24:05.169Z,97490.76
2023-01-17T03:26:32.970Z,97491.23
2023-01-17T03:29:01.751Z,97490.77
2023-01-17T03:31:29.417Z,97483.05
2023-01-17T03:33:57.021Z,97484.61
2023-01-17T03:36:24.662Z,97480.56
2023-01-17T03:38:52.329Z,97475.59
2023-01-17T03:41:19.932Z,97468.45
2023-01-17T03:43:47.769Z,97461.05
2023-01-17T03:46:28.151Z,97460.32
2023-01-17T03:48:55.827Z,97462.45
2023-01-17T03:51:23.683Z,97462.17
2023-01-17T03:53:51.380Z,97458.98
2023-01-17T03:56:19.393Z,97462.02
2023-01-17T03:58:47.122Z,97454.16
2023-01-17T04:01:15.015Z,97457.97
2023-01-17T04:03:42.709Z,97469.34
2023-01-17T04:06:10.354Z,97469.14
2023-01-17T04:08:38.132Z,97463.11
2023-01-17T04:11:05.762Z,97460.59
2023-01-17T04:13:33.419Z,97463.03
2023-01-17T04:16:01.073Z,97466.04
2023-01-17T04:18:28.808Z,97462.15
2023-01-17T04:20:56.563Z,97462.06
2023-01-17T04:23:24.154Z,97460.34
2023-01-17T04:25:51.757Z,97461.60
2023-01-17T04:28:19.373Z,97464.30
2023-01-17T04:30:47.131Z,97468.49
2023-01-17T04:33:15.013Z,97471.09
2023-01-17T04:35:42.716Z,97465.23
2023-01-17T04:38:10.442Z,97461.16
2023-01-17T04:40:38.186Z,97462.42
2023-01-17T04:43:05.801Z,97471.98
2023-01-17T04:45:33.424Z,97472.49
2023-01-17T04:48:06.099Z,97472.31
2023-01-17T04:50:33.860Z,97473.89
2023-01-17T04:53:01.474Z,97479.09
2023-01-17T04:55:29.334Z,97477.29
2023-01-17T04:57:57.096Z,97474.80
2023-01-17T05:00:25.469Z,97480.96
2023-01-17T05:02:53.189Z,97485.55
2023-01-17T05:05:21.144Z,97488.66
2023-01-17T05:07:56.759Z,97493.02
2023-01-17T05:10:25.565Z,97495.05
2023-01-17T05:12:58.980Z,97493.00
2023-01-17T05:15:27.321Z,97490.42
2023-01-17T05:17:56.090Z,97486.34
2023-01-17T05:20:26.646Z,97488.11
2023-01-17T05:22:56.557Z,97491.05
2023-01-17T05:25:27.641Z,97493.54
2023-01-17T05:27:56.709Z,97491.31
2023-01-17T05:30:24.271Z,97488.78
2023-01-17T05:32:54.862Z,97489.13
2023-01-17T05:35:29.492Z,97492.77
2023-01-17T05:37:57.229Z,97491.73
2023-01-17T05:40:28.729Z,97490.34
2023-01-17T05:42:59.431Z,97495.58
2023-01-17T05:45:35.671Z,97493.75
2023-01-17T05:48:04.231Z,97494.30
2023-01-17T05:50:36.091Z,97499.83
2023-01-17T05:53:12.429Z,97501.86
2023-01-17T05:55:41.463Z,97500.83
2023-01-17T05:58:17.590Z,97501.83
2023-01-17T06:00:46.329Z,97508.59
2023-01-17T06:03:15.237Z,97507.14
2023-01-17T06:05:44.227Z,97512.61
2023-01-17T06:08:11.984Z,97515.33
2023-01-17T06:10:39.671Z,97515.11
2023-01-17T06:13:14.660Z,97517.80
2023-01-17T06:15:42.486Z,97516.79
2023-01-17T06:18:14.031Z,97519.64
2023-01-17T06:20:42.479Z,97526.79
2023-01-17T06:23:13.542Z,97534.90
2023-01-17T06:25:46.193Z,97537.93
2023-01-17T06:28:17.758Z,97540.11
2023-01-17T06:30:46.242Z,97544.34
2023-01-17T06:33:14.312Z,97549.09
2023-01-17T06:35:50.891Z,97550.07
2023-01-17T06:38:19.673Z,97554.63
2023-01-17T06:40:48.081Z,97557.28
2023-01-17T06:43:16.135Z,97555.99
2023-01-17T06:45:43.939Z,97557.85
2023-01-17T06:48:11.712Z,97559.79
2023-01-17T06:50:43.351Z,97563.52
2023-01-17T06:53:11.072Z,97565.23
2023-01-17T06:55:39.673Z,97572.56
2023-01-17T06:58:09.664Z,97572.45
2023-01-17T07:00:40.353Z,97576.92
2023-01-17T07:03:19.407Z,97581.02
2023-01-17T07:05:48.397Z,97587.58
2023-01-17T07:08:17.643Z,97592.86
2023-01-17T07:10:47.410Z,97592.10
2023-01-17T07:13:15.332Z,97590.62
2023-01-17T07:15:43.361Z,97589.36
2023-01-17T07:18:11.203Z,97590.52
2023-01-17T07:20:39.264Z,97591.40
2023-01-17T07:23:07.093Z,97594.14
2023-01-17T07:25:34.944Z,97595.92
2023-01-17T07:28:03.060Z,97600.16
2023-01-17T07:30:30.803Z,97603.21
2023-01-17T07:32:58.633Z,97603.39
2023-01-17T07:35:27.423Z,97602.20
2023-01-17T07:37:57.780Z,97608.15
2023-01-17T07:40:26.426Z,97609.11
2023-01-17T07:43:12.726Z,97612.90
2023-01-17T07:45:49.941Z,97620.84
2023-01-17T07:48:21.563Z,97625.36
2023-01-17T07:50:57.426Z,97630.20
2023-01-17T07:53:29.932Z,97627.80
2023-01-17T07:56:06.977Z,97627.98
2023-01-17T07:58:35.796Z,97634.80
2023-01-17T08:01:13.776Z,97639.13
2023-01-17T08:03:42.640Z,97642.38
2023-01-17T08:06:25.514Z,97639.07
2023-01-17T08:08:58.390Z,97639.95
2023-01-17T08:11:26.321Z,97638.99
2023-01-17T08:13:59.666Z,97635.21
2023-01-17T08:16:29.056Z,97631.63
2023-01-17T08:18:56.728Z,97634.70
2023-01-17T08:21:24.688Z,97638.59
2023-01-17T08:23:52.452Z,97639.65
2023-01-17T08:26:21.589Z,97635.36
2023-01-17T08:29:00.426Z,97638.61
2023-01-17T08:31:32.951Z,97646.26
2023-01-17T08:34:00.898Z,97649.98
2023-01-17T08:36:30.631Z,97647.34
2023-01-17T08:38:58.493Z,97648.08
2023-01-17T08:41:27.223Z,97651.56
2023-01-17T08:43:54.955Z,97655.02
2023-01-17T08:46:22.786Z,97656.10
2023-01-17T08:48:59.520Z,97659.00
2023-01-17T08:51:28.105Z,97659.41
2023-01-17T08:53:56.561Z,97665.35
2023-01-17T08:56:25.518Z,97665.70
2023-01-17T08:58:53.300Z,97668.88
2023-01-17T09:01:21.292Z,97672.98
2023-01-17T09:03:50.578Z,97673.71
2023-01-17T09:06:18.302Z,97676.54
2023-01-17T09:08:47.206Z,97679.15
2023-01-17T09:11:17.370Z,97682.60
2023-01-17T09:13:45.138Z,97683.27
2023-01-17T09:16:13.004Z,97686.56
2023-01-17T09:18:40.927Z,97691.75
2023-01-17T09:21:15.783Z,97698.91
2023-01-17T09:23:43.923Z,97704.76
2023-01-17T09:26:26.032Z,97703.17
2023-01-17T09:28:54.669Z,97703.45
2023-01-17T09:31:23.899Z,97706.27
2023-01-17T09:33:53.642Z,97704.86
2023-01-17T09:36:23.434Z,97705.67
2023-01-17T09:38:57.227Z,97707.66
2023-01-17T09:41:36.963Z,97709.77
2023-01-17T09:44:20.317Z,97713.24
2023-01-17T09:46:51.695Z,97714.67
2023-01-17T09:49:43.686Z,97711.83
2023-01-17T09:52:20.320Z,97713.98
2023-01-17T09:54:50.186Z,97710.27
2023-01-17T09:57:58.624Z,97710.70
2023-01-17T10:00:35.204Z,97713.71
2023-01-17T10:03:49.035Z,97715.47
2023-01-17T10:06:51.311Z,97715.51
2023-01-17T10:09:45.662Z,97714.08
2023-01-17T10:12:32.628Z,97714.54
2023-01-17T10:15:23.852Z,97715.46
2023-01-17T10:17:57.303Z,97718.01
2023-01-17T10:20:52.132Z,97717.86
2023-01-17T10:23:31.937Z,97718.14
2023-01-17T10:26:21.743Z,97712.33
2023-01-17T10:28:52.771Z,97708.30
2023-01-17T10:31:27.272Z,97709.52
2023-01-17T10:34:06.434Z,97709.80
2023-01-17T10:36:46.211Z,97713.81
2023-01-17T10:39:28.746Z,97714.63
2023-01-17T10:42:06.065Z,97717.20
2023-01-17T10:45:03.797Z,97721.27
2023-01-17T10:47:37.153Z,97718.99
2023-01-17T10:50:05.425Z,97721.45
2023-01-17T10:53:15.861Z,97726.45
2023-01-17T10:55:52.766Z,97723.80
2023-01-17T10:58:20.958Z,97725.69
2023-01-17T11:01:00.634Z,97724.38
2023-01-17T11:03:28.795Z,97720.27
2023-01-17T11:06:22.395Z,97717.84
2023-01-17T11:08:58.670Z,97715.83
2023-01-17T11:11:33.078Z,97713.42
2023-01-17T11:14:15.264Z,97713.45
2023-01-17T11:16:43.451Z,97712.13
2023-01-17T11:19:29.905Z,97704.55
2023-01-17T11:22:04.159Z,97698.36
2023-01-17T11:24:38.254Z,97696.71
2023-01-17T11:27:22.111Z,97699.77
2023-01-17T11:30:06.622Z,97703.52
2023-01-17T11:32:35.194Z,97710.68
2023-01-17T11:35:25.071Z,97713.57
2023-01-17T11:38:11.308Z,97714.35
2023-01-17T11:40:48.698Z,97715.39
2023-01-17T11:43:27.188Z,97716.86
2023-01-17T11:46:17.189Z,97714.44
2023-01-17T11:49:00.272Z,97714.14
2023-01-17T11:51:55.604Z,97708.44
2023-01-17T11:54:41.820Z,97708.30
2023-01-17T11:57:32.456Z,97711.80
2023-01-17T12:00:24.045Z,97709.59
2023-01-17T12:03:50.232Z,97707.37
2023-01-17T12:06:33.117Z,97710.67
2023-01-17T12:09:29.986Z,97715.96
2023-01-17T12:12:49.545Z,97718.18
2023-01-17T12:15:59.435Z,97723.02
2023-01-17T12:19:00.486Z,97729.89
2023-01-17T12:22:04.608Z,97726.84
2023-01-17T12:25:01.222Z,97727.39
2023-01-17T12:27:42.640Z,97722.69
2023-01-17T12:30:50.764Z,97717.96
2023-01-17T12:33:50.561Z,97712.73
2023-01-17T12:36:30.646Z,97711.88
2023-01-17T12:39:18.659Z,97709.11
2023-01-17T12:42:42.176Z,97708.77
2023-01-17T12:45:20.816Z,97709.79
2023-01-17T12:47:56.204Z,97706.71
2023-01-17T12:51:05.319Z,97705.87
2023-01-17T12:54:10.174Z,97703.92
2023-01-17T12:56:52.034Z,97704.94
2023-01-17T12:59:39.859Z,97703.73
2023-01-17T13:02:58.489Z,97710.55
2023-01-17T13:05:41.201Z,97713.53
2023-01-17T13:08:38.261Z,97711.23
2023-01-17T13:11:34.882Z,97710.39
2023-01-17T13:14:08.347Z,97712.77
2023-01-17T13:17:11.053Z,97711.96
2023-01-17T13:20:31.311Z,97710.86
2023-01-17T13:23:52.723Z,97712.23
2023-01-17T13:26:33.511Z,97720.18
2023-01-17T13:29:39.174Z,97732.88
2023-01-17T13:33:01.256Z,97740.11
2023-01-17T13:36:10.103Z,97742.77
2023-01-17T13:39:07.465Z,97750.34
2023-01-17T13:41:54.446Z,97761.13
2023-01-17T13:44:27.025Z,97764.34
2023-01-17T13:47:06.076Z,97769.70
2023-01-17T13:49:50.951Z,97771.74
2023-01-17T13:52:18.745Z,97769.59
2023-01-17T13:54:49.510Z,97770.71
2023-01-17T13:57:25.981Z,97767.42
2023-01-17T13:59:57.130Z,97769.29
2023-01-17T14:02:38.686Z,97769.78
2023-01-17T14:05:29.714Z,97773.54
2023-01-17T14:08:15.085Z,97781.54
2023-01-17T14:11:04.982Z,97786.61
2023-01-17T14:13:39.598Z,97793.24
2023-01-17T14:16:29.817Z,97796.35
2023-01-17T14:18:57.748Z,97798.78
2023-01-17T14:21:31.685Z,97806.70
2023-01-17T14:24:03.608Z,97813.31
2023-01-17T14:27:14.281Z,97822.19
2023-01-17T14:29:42.159Z,97832.73
2023-01-17T14:32:29.735Z,97842.11
2023-01-17T14:34:58.665Z,97843.48
2023-01-17T14:37:32.338Z,97843.10
2023-01-17T14:40:01.016Z,97847.46
2023-01-17T14:42:32.508Z,97848.16
2023-01-17T14:45:12.887Z,97853.88
2023-01-17T14:47:44.240Z,97865.64
2023-01-17T14:50:17.905Z,97875.61
2023-01-17T14:52:45.746Z,97880.65
2023-01-17T14:55:18.632Z,97882.71
2023-01-17T14:57:55.499Z,97882.38
2023-01-17T15:00:28.573Z,97882.35
2023-01-17T15:03:11.834Z,97890.73
2023-01-17T15:05:45.001Z,97901.58
2023-01-17T15:08:18.333Z,97911.23
2023-01-17T15:10:59.874Z,97919.48
2023-01-17T15:13:44.255Z,97921.50
2023-01-17T15:16:38.260Z,97929.71
2023-01-17T15:19:14.636Z,97939.83
2023-01-17T15:21:45.285Z,97940.77
2023-01-17T15:24:36.604Z,97937.30
2023-01-17T15:27:05.764Z,97934.61
2023-01-17T15:29:35.169Z,97935.38
2023-01-17T15:32:06.432Z,97938.35
2023-01-17T15:34:44.051Z,97940.06
2023-01-17T15:37:41.287Z,97940.31
2023-01-17T15:40:23.904Z,97940.49
2023-01-17T15:42:57.860Z,97943.49
2023-01-17T15:45:29.863Z,97947.73
2023-01-17T15:49:00.736Z,97952.63
2023-01-17T15:51:36.420Z,97964.08
2023-01-17T15:54:28.361Z,97963.92
2023-01-17T15:57:36.572Z,97965.54
2023-01-17T16:00:17.982Z,97968.38
2023-01-17T16:03:00.385Z,97969.05
2023-01-17T16:05:32.631Z,97965.50
2023-01-17T16:08:04.428Z,97958.54
2023-01-17T16:10:36.551Z,97951.73
2023-01-17T16:13:06.291Z,97950.02
2023-01-17T16:15:36.320Z,97956.30
2023-01-17T16:18:15.039Z,97963.58
2023-01-17T16:20:53.486Z,97960.36
2023-01-17T16:23:21.269Z,97960.02
2023-01-17T16:25:49.014Z,97961.79
2023-01-17T16:28:16.764Z,97958.92
2023-01-17T16:30:45.643Z,97952.56
2023-01-17T16:33:14.520Z,97952.35
2023-01-17T16:35:42.463Z,97947.91
2023-01-17T16:38:14.899Z,97948.45
2023-01-17T16:40:45.783Z,97943.33
2023-01-17T16:43:16.738Z,97946.96
2023-01-17T16:45:53.402Z,97952.14
2023-01-17T16:48:23.240Z,97956.57
2023-01-17T16:50:52.389Z,97955.66
2023-01-17T16:53:25.627Z,97951.21
2023-01-17T16:56:04.916Z,97945.33
2023-01-17T16:58:32.757Z,97947.98
2023-01-17T17:01:02.051Z,97951.78
2023-01-17T17:03:30.238Z,97955.58
2023-01-17T17:06:01.330Z,97959.41
2023-01-17T17:08:29.399Z,97959.45
2023-01-17T17:11:32.854Z,97959.59
2023-01-17T17:14:01.552Z,97960.90
2023-01-17T17:16:30.080Z,97958.20
2023-01-17T17:19:05.599Z,97960.38
2023-01-17T17:21:36.943Z,97958.08
2023-01-17T17:24:05.246Z,97958.04
2023-01-17T17:26:36.447Z,97956.58
2023-01-17T17:29:09.738Z,97956.02
2023-01-17T17:31:42.054Z,97958.26
2023-01-17T17:34:12.165Z,97961.23
2023-01-17T17:36:41.312Z,97967.48
2023-01-17T17:39:16.753Z,97969.27
2023-01-17T17:41:45.719Z,97970.54
2023-01-17T17:44:13.782Z,97974.57
2023-01-17T17:46:42.494Z,97978.06
2023-01-17T17:49:10.283Z,97975.58
2023-01-17T17:51:40.235Z,97970.21
2023-01-17T17:54:12.267Z,97962.70
2023-01-17T17:56:45.741Z,97964.22
2023-01-17T17:59:17.651Z,97972.97
2023-01-17T18:01:47.232Z,97978.42
2023-01-17T18:04:15.350Z,97986.76
2023-01-17T18:06:44.043Z,97993.20
2023-01-17T18:09:14.392Z,98000.27
2023-01-17T18:11:43.636Z,97999.50
2023-01-17T18:14:14.637Z,98000.68
2023-01-17T18:16:44.859Z,97998.58
2023-01-17T18:19:20.646Z,97996.58
2023-01-17T18:21:50.818Z,97998.45
2023-01-17T18:24:22.341Z,97999.95
2023-01-17T18:26:57.243Z,98001.46
2023-01-17T18:29:27.153Z,98006.40
2023-01-17T18:31:56.014Z,98014.58
2023-01-17T18:34:28.686Z,98016.02
2023-01-17T18:36:57.479Z,98026.14
2023-01-17T18:39:29.039Z,98030.80
2023-01-17T18:41:57.693Z,98031.78
2023-01-17T18:44:26.880Z,98032.11
2023-01-17T18:46:57.498Z,98036.65
2023-01-17T18:49:25.322Z,98042.09
2023-01-17T18:51:53.243Z,98046.35
2023-01-17T18:54:21.595Z,98051.13
2023-01-17T18:56:50.546Z,98052.71
2023-01-17T18:59:19.082Z,98054.50
2023-01-17T19:01:47.102Z,98062.30
2023-01-17T19:04:16.636Z,98066.85
2023-01-17T19:06:48.987Z,98068.79
2023-01-17T19:09:16.986Z,98074.36
2023-01-17T19:11:46.957Z,98081.30
2023-01-17T19:14:15.264Z,98082.36
2023-01-17T19:16:43.459Z,98078.95
2023-01-17T19:19:14.846Z,98077.30
2023-01-17T19:21:42.863Z,98075.85
2023-01-17T19:24:14.988Z,98072.83
2023-01-17T19:26:44.917Z,98074.38
2023-01-17T19:29:13.649Z,98080.14
2023-01-17T19:31:42.621Z,98087.75
2023-01-17T19:34:18.291Z,98088.77
2023-01-17T19:36:46.617Z,98097.49
2023-01-17T19:39:14.604Z,98098.61
2023-01-17T19:41:45.875Z,98102.38
2023-01-17T19:44:14.496Z,98106.37
2023-01-17T19:46:43.582Z,98108.91
2023-01-17T19:49:11.664Z,98102.70
2023-01-17T19:51:39.681Z,98103.22
2023-01-17T19:54:07.736Z,98104.15
2023-01-17T19:56:35.676Z,98106.08
2023-01-17T19:59:03.585Z,98101.59
2023-01-17T20:01:33.629Z,98095.61
2023-01-17T20:04:03.667Z,98098.77
2023-01-17T20:06:36.361Z,98098.83
2023-01-17T20:09:06.466Z,98100.18
2023-01-17T20:11:34.551Z,98102.02
2023-01-17T20:14:06.953Z,98106.08
2023-01-17T20:16:54.892Z,98113.74
2023-01-17T20:19:24.521Z,98117.16
2023-01-17T20:21:53.381Z,98116.13
2023-01-17T20:24:23.837Z,98115.73
2023-01-17T20:26:57.544Z,98108.55
2023-01-17T20:29:26.673Z,98099.98
2023-01-17T20:31:54.569Z,98099.42
2023-01-17T20:34:25.205Z,98099.27
2023-01-17T20:36:58.663Z,98100.20
2023-01-17T20:39:27.024Z,98098.52
2023-01-17T20:41:55.514Z,98096.38
2023-01-17T20:44:23.479Z,98098.27
2023-01-17T20:46:51.379Z,98101.55
2023-01-17T20:49:19.680Z,98100.00
2023-01-17T20:51:47.846Z,98095.38
2023-01-17T20:54:18.491Z,98096.81
2023-01-17T20:56:47.188Z,98099.38
2023-01-17T20:59:19.208Z,98100.60
2023-01-17T21:01:49.660Z,98102.32
2023-01-17T21:04:24.930Z,98096.86
2023-01-17T21:06:52.891Z,98104.20
2023-01-17T21:09:21.405Z,98105.73
2023-01-17T21:11:51.503Z,98102.02
2023-01-17T21:14:21.072Z,98100.67
2023-01-17T21:16:49.705Z,98100.23
2023-01-17T21:19:17.608Z,98100.69
2023-01-17T21:21:45.652Z,98111.02
2023-01-17T21:24:18.462Z,98119.02
2023-01-17T21:26:46.698Z,98118.63
2023-01-17T21:29:15.447Z,98122.27
2023-01-17T21:31:44.653Z,98123.13
2023-01-17T21:34:13.116Z,98121.04
2023-01-17T21:36:42.803Z,98117.25
2023-01-17T21:39:19.212Z,98110.95
2023-01-17T21:41:50.249Z,98103.36
2023-01-17T21:44:21.489Z,98101.48
2023-01-17T21:46:56.179Z,98096.19
2023-01-17T21:49:24.570Z,98093.95
2023-01-17T21:51:52.590Z,98093.01
2023-01-17T21:54:42.701Z,98087.45
2023-01-17T21:57:39.240Z,98085.17
2023-01-17T22:00:13.967Z,98079.64
2023-01-17T22:02:45.841Z,98078.86
2023-01-17T22:05:15.955Z,98077.20
2023-01-17T22:08:04.797Z,98077.27
2023-01-17T22:10:43.788Z,98073.15
2023-01-17T22:13:17.205Z,98071.53
2023-01-17T22:15:45.793Z,98070.08
2023-01-17T22:18:14.658Z,98065.70
2023-01-17T22:20:42.534Z,98062.35
2023-01-17T22:23:12.550Z,98062.02
2023-01-17T22:25:40.566Z,98062.40
2023-01-17T22:28:08.731Z,98061.41
2023-01-17T22:30:37.095Z,98064.81
2023-01-17T22:33:05.469Z,98065.53
2023-01-17T22:35:33.897Z,98054.83
2023-01-17T22:38:11.912Z,98052.80
2023-01-17T22:40:41.881Z,98051.82
2023-01-17T22:43:12.193Z,98049.95
2023-01-17T22:45:42.795Z,98047.86
2023-01-17T22:48:10.820Z,98043.09
2023-01-17T22:50:38.960Z,98040.39
2023-01-17T22:53:07.830Z,98041.13
2023-01-17T22:55:35.930Z,98048.94
2023-01-17T22:58:04.103Z,98057.16
2023-01-17T23:00:32.167Z,98061.77
2023-01-17T23:03:00.598Z,98064.87
2023-01-17T23:05:28.833Z,98071.77
2023-01-17T23:07:56.675Z,98075.50
2023-01-17T23:10:43.517Z,98073.70
2023-01-17T23:13:15.878Z,98068.10
2023-01-17T23:16:02.113Z,98065.73
2023-01-17T23:18:48.111Z,98068.41
2023-01-17T23:21:15.977Z,98065.20
2023-01-17T23:23:43.931Z,98065.75
2023-01-17T23:26:12.010Z,98068.69
2023-01-17T23:28:40.094Z,98062.83
2023-01-17T23:31:10.340Z,98058.73
2023-01-17T23:33:38.281Z,98052.06
2023-01-17T23:36:08.720Z,98055.60
2023-01-17T23:38:40.231Z,98056.59
2023-01-17T23:41:27.119Z,98061.13
2023-01-17T23:43:58.450Z,98062.77
2023-01-17T23:46:28.086Z,98065.30
2023-01-17T23:48:55.996Z,98068.95
2023-01-17T23:51:23.939Z,98072.48
2023-01-17T23:53:56.691Z,98076.27
2023-01-17T23:56:24.677Z,98083.44
2023-01-17T23:58:52.739Z,98094.86
